Time;durP1;ratioP1;P1;durP2;ratioP2;P2;SDS_P1;SDS_P2;PMS_P1;PMS_P2;Temp;Humidity;BMP_temperature;BMP_pressure;BME280_temperature;BME280_humidity;BME280_pressure;Samples;Min_cycle;Max_cycle;Signal;HPM_P1;HPM_P2
2023/10/05 00:01:03;;;;;;;7.10;1.85;;;13.30;92.30;;;;;;5066224;28;20075;-73
2023/10/05 00:03:05;;;;;;;8.45;2.05;;;13.30;92.60;;;;;;5051064;28;20032;-72
2023/10/05 00:05:35;;;;;;;5.55;1.80;;;13.40;92.60;;;;;;5065041;28;20866;-72
2023/10/05 00:08:03;;;;;;;8.52;2.13;;;13.40;92.60;;;;;;5047292;28;20123;-71
2023/10/05 00:10:30;;;;;;;12.57;2.28;;;13.50;92.30;;;;;;5062823;28;20063;-72
2023/10/05 00:13:00;;;;;;;9.00;2.20;;;13.50;92.30;;;;;;5053966;28;20118;-72
2023/10/05 00:15:27;;;;;;;7.78;2.00;;;13.60;92.10;;;;;;5064535;28;20027;-72
2023/10/05 00:17:54;;;;;;;6.13;2.15;;;13.80;91.80;;;;;;5054401;28;20039;-72
2023/10/05 00:20:25;;;;;;;13.63;2.03;;;13.80;91.70;;;;;;5061988;28;20051;-73
2023/10/05 00:22:51;;;;;;;9.65;2.35;;;13.90;91.50;;;;;;5053653;28;20130;-72
2023/10/05 00:25:18;;;;;;;7.40;1.75;;;14.00;91.40;;;;;;5069215;28;20042;-73
2023/10/05 00:27:44;;;;;;;14.25;2.00;;;14.00;91.50;;;;;;5050064;28;20028;-72
2023/10/05 00:30:16;;;;;;;12.45;2.35;;;13.90;91.40;;;;;;5065704;28;20037;-72
2023/10/05 00:32:47;;;;;;;13.32;1.92;;;13.90;91.50;;;;;;5055247;28;20028;-72
2023/10/05 00:35:31;;;;;;;11.45;1.88;;;13.90;91.40;;;;;;5061608;28;20016;-72
2023/10/05 00:38:04;;;;;;;9.32;1.45;;;14.00;91.10;;;;;;5051202;28;20044;-73
2023/10/05 00:40:35;;;;;;;6.60;2.30;;;14.10;90.80;;;;;;5058724;28;20036;-72
2023/10/05 00:43:06;;;;;;;8.95;1.50;;;14.10;90.60;;;;;;5053566;28;20737;-72
2023/10/05 00:45:33;;;;;;;6.55;1.58;;;14.20;90.60;;;;;;5065364;28;20093;-72
2023/10/05 00:48:09;;;;;;;13.00;2.10;;;14.20;90.60;;;;;;5049295;28;20037;-72
2023/10/05 00:50:36;;;;;;;10.45;2.17;;;14.20;90.60;;;;;;5066656;28;20119;-72
2023/10/05 00:53:03;;;;;;;11.65;1.95;;;14.20;90.50;;;;;;5053772;28;20039;-72
2023/10/05 00:55:29;;;;;;;8.20;1.95;;;14.20;90.50;;;;;;5065055;28;20037;-72
2023/10/05 00:57:55;;;;;;;10.13;1.95;;;14.20;90.40;;;;;;5055113;28;20065;-72
2023/10/05 01:00:28;;;;;;;6.30;1.67;;;14.20;90.60;;;;;;5064763;28;20036;-72
2023/10/05 01:03:17;;;;;;;6.35;2.05;;;14.20;90.70;;;;;;5065436;28;20119;-73
2023/10/05 01:05:49;;;;;;;9.60;1.75;;;14.10;90.70;;;;;;5064040;28;20474;-74
2023/10/05 01:08:16;;;;;;;10.13;1.88;;;14.20;90.70;;;;;;5050250;28;20042;-73
2023/10/05 01:10:44;;;;;;;9.13;1.90;;;14.30;90.70;;;;;;5064545;28;20472;-73
2023/10/05 01:13:32;;;;;;;10.40;2.22;;;14.30;90.70;;;;;;5064876;28;20039;-73
2023/10/05 01:15:59;;;;;;;7.00;1.70;;;14.30;90.50;;;;;;5061143;28;20450;-73
2023/10/05 01:18:25;;;;;;;8.82;2.20;;;14.30;90.40;;;;;;5067595;28;20033;-73
2023/10/05 01:20:51;;;;;;;10.43;2.03;;;14.30;90.20;;;;;;5051868;28;20048;-72
2023/10/05 01:23:28;;;;;;;7.57;1.73;;;14.40;90.10;;;;;;5066516;28;20039;-72
2023/10/05 01:25:53;;;;;;;10.45;1.63;;;14.40;90.00;;;;;;5051701;28;20031;-73
2023/10/05 01:28:19;;;;;;;7.18;1.48;;;14.40;89.70;;;;;;5064380;28;20068;-73
2023/10/05 01:30:45;;;;;;;11.60;2.17;;;14.30;90.00;;;;;;5054724;28;20113;-73
2023/10/05 01:33:11;;;;;;;14.30;2.10;;;14.30;90.00;;;;;;5068519;28;20043;-73
2023/10/05 01:35:41;;;;;;;8.50;1.40;;;14.30;89.90;;;;;;5046687;28;20032;-73
2023/10/05 01:38:07;;;;;;;6.60;1.75;;;14.30;89.90;;;;;;5066262;28;20391;-72
2023/10/05 01:40:36;;;;;;;13.50;1.85;;;14.30;90.00;;;;;;5047900;28;20252;-73
2023/10/05 01:43:02;;;;;;;8.68;1.70;;;14.20;89.80;;;;;;5058622;28;20503;-73
2023/10/05 01:45:33;;;;;;;10.70;1.95;;;14.20;89.50;;;;;;5053181;28;20042;-72
2023/10/05 01:48:11;;;;;;;8.30;1.52;;;14.20;89.40;;;;;;5062674;28;20075;-72
2023/10/05 01:50:37;;;;;;;9.35;2.03;;;14.10;89.50;;;;;;5055194;28;20131;-72
2023/10/05 01:53:07;;;;;;;9.48;1.60;;;14.20;89.60;;;;;;5067882;28;20036;-72
2023/10/05 01:55:34;;;;;;;12.55;2.00;;;14.10;89.70;;;;;;5046870;28;20059;-72
2023/10/05 01:58:00;;;;;;;7.82;1.80;;;14.10;89.60;;;;;;5067904;28;20170;-72
2023/10/05 02:00:26;;;;;;;9.65;1.90;;;14.00;89.80;;;;;;5051792;28;20054;-72
2023/10/05 02:02:52;;;;;;;10.07;1.95;;;14.00;90.00;;;;;;5055255;28;20039;-73
2023/10/05 02:05:20;;;;;;;7.63;1.98;;;14.00;89.90;;;;;;5048102;28;20040;-72
2023/10/05 02:07:49;;;;;;;11.27;2.63;;;13.90;90.00;;;;;;5059655;28;20657;-72
2023/10/05 02:10:19;;;;;;;12.23;2.30;;;13.90;89.60;;;;;;5054936;28;20089;-73
2023/10/05 02:12:49;;;;;;;8.45;1.70;;;13.90;89.50;;;;;;5065113;28;20075;-72
2023/10/05 02:15:16;;;;;;;11.18;2.60;;;13.90;89.40;;;;;;5061728;28;20270;-72
2023/10/05 02:17:45;;;;;;;10.35;2.10;;;13.90;89.20;;;;;;5052985;28;20179;-72
2023/10/05 02:20:32;;;;;;;8.07;2.17;;;13.90;89.30;;;;;;5065209;28;20042;-72
2023/10/05 02:22:58;;;;;;;10.50;1.83;;;13.90;89.60;;;;;;5059808;28;20115;-72
2023/10/05 02:25:31;;;;;;;6.78;1.45;;;13.90;88.90;;;;;;5067716;28;20075;-72
2023/10/05 02:27:57;;;;;;;12.82;1.63;;;13.90;88.50;;;;;;5051024;28;20029;-73
2023/10/05 02:30:27;;;;;;;10.30;2.30;;;13.90;88.00;;;;;;5067561;28;20032;-73
2023/10/05 02:32:54;;;;;;;7.35;1.88;;;13.90;88.00;;;;;;5051350;28;20067;-73
2023/10/05 02:35:29;;;;;;;9.02;1.58;;;14.00;88.20;;;;;;5060059;28;20467;-74
2023/10/05 02:37:55;;;;;;;8.70;2.03;;;13.90;88.40;;;;;;5057284;28;20033;-72
2023/10/05 02:40:39;;;;;;;6.07;1.42;;;13.90;88.00;;;;;;5064597;28;20552;-73
2023/10/05 02:43:07;;;;;;;11.65;1.58;;;13.90;87.90;;;;;;5053835;28;20060;-73
2023/10/05 02:45:37;;;;;;;10.82;1.70;;;13.90;88.10;;;;;;5065105;28;20047;-73
2023/10/05 02:48:06;;;;;;;7.93;1.65;;;13.90;88.40;;;;;;5051004;28;20036;-74
2023/10/05 02:50:32;;;;;;;7.43;2.00;;;13.90;88.90;;;;;;5068440;28;20124;-73
2023/10/05 02:53:03;;;;;;;15.52;2.17;;;13.90;89.30;;;;;;5056601;28;20081;-73
2023/10/05 02:55:35;;;;;;;10.27;2.08;;;13.90;90.00;;;;;;5063804;28;20036;-72
2023/10/05 02:58:04;;;;;;;6.63;2.03;;;13.90;89.60;;;;;;5058977;28;20033;-73
2023/10/05 03:00:33;;;;;;;5.95;1.40;;;13.80;89.80;;;;;;5068678;28;20029;-73
2023/10/05 03:03:03;;;;;;;7.70;2.03;;;13.80;90.00;;;;;;5050077;28;20036;-73
2023/10/05 03:05:32;;;;;;;13.50;2.38;;;13.80;90.00;;;;;;5068766;28;20028;-73
2023/10/05 03:07:58;;;;;;;12.80;1.58;;;13.80;90.20;;;;;;5054846;28;20036;-72
2023/10/05 03:10:24;;;;;;;10.93;1.98;;;13.70;90.30;;;;;;5066376;28;20408;-73
2023/10/05 03:12:50;;;;;;;17.50;2.65;;;13.70;90.50;;;;;;5055564;28;20032;-73
2023/10/05 03:15:17;;;;;;;10.23;1.75;;;13.60;90.60;;;;;;5061820;28;20032;-73
2023/10/05 03:17:45;;;;;;;8.00;1.90;;;13.60;90.60;;;;;;5052427;28;20040;-72
2023/10/05 03:20:17;;;;;;;8.33;1.80;;;13.50;90.70;;;;;;5064737;28;20092;-72
2023/10/05 03:22:46;;;;;;;11.20;1.83;;;13.50;90.70;;;;;;5050831;28;20272;-72
2023/10/05 03:25:14;;;;;;;9.93;1.98;;;13.60;90.70;;;;;;5064409;28;20036;-72
2023/10/05 03:27:40;;;;;;;7.55;1.85;;;13.60;90.70;;;;;;5066697;28;20051;-73
2023/10/05 03:30:07;;;;;;;7.10;1.77;;;13.60;90.60;;;;;;5052170;28;20052;-73
2023/10/05 03:32:35;;;;;;;9.70;2.03;;;13.60;90.70;;;;;;5071970;28;20040;-73
2023/10/05 03:35:02;;;;;;;8.43;2.35;;;13.60;90.70;;;;;;5046814;28;20166;-73
2023/10/05 03:37:31;;;;;;;8.75;2.20;;;13.60;90.60;;;;;;5070697;28;20067;-73
2023/10/05 03:40:08;;;;;;;7.43;1.70;;;13.60;90.70;;;;;;5051997;28;20043;-72
2023/10/05 03:42:35;;;;;;;15.32;2.08;;;13.60;90.90;;;;;;5063852;28;20063;-73
2023/10/05 03:45:02;;;;;;;10.93;2.13;;;13.60;90.90;;;;;;5054529;28;20059;-73
2023/10/05 03:47:30;;;;;;;6.85;1.90;;;13.60;90.90;;;;;;5067116;28;20162;-73
2023/10/05 03:49:56;;;;;;;13.77;1.63;;;13.60;90.90;;;;;;5051393;28;20483;-73
2023/10/05 03:52:23;;;;;;;7.70;2.17;;;13.60;90.80;;;;;;5065990;28;20037;-72
2023/10/05 03:54:49;;;;;;;8.63;2.22;;;13.50;90.80;;;;;;5050867;28;20035;-72
2023/10/05 03:57:16;;;;;;;10.80;1.95;;;13.60;90.80;;;;;;5071363;28;20051;-74
2023/10/05 03:59:43;;;;;;;8.95;2.03;;;13.60;90.70;;;;;;5055261;28;20040;-74
2023/10/05 04:02:09;;;;;;;10.00;2.80;;;13.60;90.70;;;;;;5060385;28;20028;-73
2023/10/05 04:04:35;;;;;;;8.75;1.98;;;13.60;90.80;;;;;;5036873;28;20036;-72
2023/10/05 04:07:03;;;;;;;11.43;2.78;;;13.60;90.50;;;;;;5062429;28;20035;-74
2023/10/05 04:09:29;;;;;;;6.72;1.95;;;13.70;90.40;;;;;;5048286;28;20578;-72
2023/10/05 04:11:56;;;;;;;5.93;1.45;;;13.70;90.30;;;;;;5059252;28;20122;-75
2023/10/05 04:14:22;;;;;;;17.55;2.55;;;13.70;90.20;;;;;;5052168;28;20030;-72
2023/10/05 04:16:49;;;;;;;11.52;2.30;;;13.70;90.20;;;;;;5061560;28;20028;-72
2023/10/05 04:19:17;;;;;;;7.93;2.13;;;13.70;90.10;;;;;;5064373;28;20271;-74
2023/10/05 04:21:44;;;;;;;10.77;2.05;;;13.70;90.10;;;;;;5047163;28;20044;-72
2023/10/05 04:24:14;;;;;;;13.68;1.50;;;13.80;90.00;;;;;;5064181;28;20119;-73
2023/10/05 04:26:45;;;;;;;9.40;1.75;;;13.70;90.00;;;;;;5054366;28;20224;-73
2023/10/05 04:29:12;;;;;;;5.03;1.75;;;13.70;90.10;;;;;;5061042;28;20051;-72
2023/10/05 04:31:38;;;;;;;6.15;1.70;;;13.60;90.40;;;;;;5054832;28;20028;-73
2023/10/05 04:34:06;;;;;;;8.95;1.75;;;13.60;90.70;;;;;;5066047;28;20040;-73
2023/10/05 04:36:32;;;;;;;6.32;1.75;;;13.60;90.60;;;;;;5049050;28;20027;-73
2023/10/05 04:38:58;;;;;;;8.57;1.45;;;13.60;90.50;;;;;;5065650;28;20058;-73
2023/10/05 04:41:28;;;;;;;13.68;2.35;;;13.50;90.60;;;;;;5054868;28;20407;-72
2023/10/05 04:43:55;;;;;;;11.80;2.67;;;13.60;90.70;;;;;;5071332;28;20111;-74
2023/10/05 04:46:21;;;;;;;10.27;1.88;;;13.50;90.70;;;;;;5052808;28;20035;-72
2023/10/05 04:49:08;;;;;;;13.80;2.15;;;13.50;90.70;;;;;;5061377;28;20649;-72
2023/10/05 04:51:35;;;;;;;6.72;1.80;;;13.50;90.80;;;;;;5052139;28;20034;-72
2023/10/05 04:54:01;;;;;;;7.68;1.73;;;13.50;90.80;;;;;;5067167;28;20032;-73
2023/10/05 04:56:53;;;;;;;8.05;2.15;;;13.50;90.80;;;;;;5048931;28;20028;-73
2023/10/05 04:59:24;;;;;;;6.57;1.90;;;13.50;90.80;;;;;;5066520;28;20522;-73
2023/10/05 05:04:41;;;;;;;8.32;2.20;;;13.50;90.80;;;;;;5066917;28;20145;-73
2023/10/05 05:07:07;;;;;;;15.77;2.55;;;13.40;91.00;;;;;;5054087;28;20126;-72
2023/10/05 05:09:35;;;;;;;4.32;1.42;;;13.40;91.20;;;;;;5062232;28;20371;-72
2023/10/05 05:12:07;;;;;;;9.93;2.00;;;13.30;91.40;;;;;;5054448;28;20240;-72
2023/10/05 05:14:36;;;;;;;9.65;2.03;;;13.30;91.60;;;;;;5066850;28;20063;-73
2023/10/05 05:17:05;;;;;;;4.60;1.98;;;13.20;91.60;;;;;;5050939;28;20126;-72
2023/10/05 05:19:31;;;;;;;6.67;1.73;;;13.20;91.60;;;;;;5061173;28;20036;-73
2023/10/05 05:22:00;;;;;;;8.18;1.52;;;13.20;91.70;;;;;;5047911;28;20045;-72
2023/10/05 05:24:28;;;;;;;6.70;1.80;;;13.20;91.60;;;;;;5060866;28;20038;-72
2023/10/05 05:27:00;;;;;;;5.30;1.63;;;13.30;91.50;;;;;;5054736;28;20092;-71
2023/10/05 05:29:29;;;;;;;5.68;1.50;;;13.30;91.70;;;;;;5060533;28;20020;-73
2023/10/05 05:31:55;;;;;;;6.80;1.95;;;13.30;91.60;;;;;;5056562;28;20044;-73
2023/10/05 05:34:25;;;;;;;6.20;1.70;;;13.30;91.70;;;;;;5070929;28;20148;-73
2023/10/05 05:36:54;;;;;;;8.02;1.80;;;13.40;91.50;;;;;;5065041;28;20123;-74
2023/10/05 05:39:21;;;;;;;6.28;1.98;;;13.40;91.30;;;;;;5054253;28;20036;-72
2023/10/05 05:41:56;;;;;;;9.40;1.73;;;13.50;91.10;;;;;;5068290;28;20063;-72
2023/10/05 05:44:22;;;;;;;7.03;1.63;;;13.50;91.00;;;;;;5052520;28;20036;-72
2023/10/05 05:46:49;;;;;;;10.23;2.10;;;13.50;90.90;;;;;;5068638;28;20031;-73
2023/10/05 05:49:16;;;;;;;6.65;1.50;;;13.50;90.80;;;;;;5050253;28;20668;-72
2023/10/05 05:51:44;;;;;;;7.82;1.60;;;13.50;90.90;;;;;;5061233;28;20537;-72
2023/10/05 05:54:10;;;;;;;8.03;1.70;;;13.60;90.80;;;;;;5052297;28;20118;-74
2023/10/05 05:56:36;;;;;;;6.10;1.45;;;13.60;90.60;;;;;;5062185;28;20596;-74
2023/10/05 05:59:02;;;;;;;6.55;1.77;;;13.50;90.80;;;;;;5055286;28;20040;-74
2023/10/05 06:01:29;;;;;;;7.13;1.77;;;13.50;90.80;;;;;;5071157;28;20467;-73
2023/10/05 06:03:54;;;;;;;7.28;1.42;;;13.60;90.50;;;;;;5073143;28;20017;-74
2023/10/05 06:06:20;;;;;;;6.30;1.60;;;13.60;90.60;;;;;;5096584;28;20024;-73
2023/10/05 06:08:47;;;;;;;4.97;1.65;;;13.60;90.60;;;;;;5080986;28;20056;-74
2023/10/05 06:11:13;;;;;;;10.02;1.98;;;13.50;90.60;;;;;;5085867;28;20035;-73
2023/10/05 06:13:40;;;;;;;8.95;1.60;;;13.50;90.60;;;;;;5085312;28;20401;-73
2023/10/05 06:16:09;;;;;;;11.13;3.83;;;13.50;90.70;;;;;;5096073;28;20033;-73
2023/10/05 06:18:35;;;;;;;;;;;13.50;90.60;;;;;;5066931;28;20029;-73
2023/10/05 06:21:02;;;;;;;15.70;3.95;;;13.50;90.50;;;;;;5095957;28;19917;-73
2023/10/05 06:23:28;;;;;;;13.20;4.35;;;13.50;90.50;;;;;;5094176;28;20016;-73
2023/10/05 06:25:56;;;;;;;14.23;3.83;;;13.50;90.50;;;;;;5078593;28;20058;-73
2023/10/05 06:28:22;;;;;;;11.15;4.28;;;13.50;90.40;;;;;;5075154;28;20048;-74
2023/10/05 06:30:50;;;;;;;10.93;3.75;;;13.50;90.40;;;;;;5058223;28;20511;-73
2023/10/05 06:33:16;;;;;;;12.10;4.45;;;13.60;90.20;;;;;;5083418;28;20023;-74
2023/10/05 06:35:41;;;;;;;16.02;4.40;;;13.60;90.10;;;;;;5059982;28;20032;-73
2023/10/05 06:38:08;;;;;;;11.40;4.93;;;13.70;89.80;;;;;;5076161;28;20076;-74
2023/10/05 06:40:34;;;;;;;15.30;3.65;;;13.80;89.20;;;;;;5051325;28;20089;-73
2023/10/05 06:43:00;;;;;;;12.52;3.20;;;13.80;88.60;;;;;;5061440;28;20036;-72
2023/10/05 06:45:25;;;;;;;12.65;2.50;;;13.90;88.30;;;;;;5040838;28;20036;-73
2023/10/05 06:47:51;;;;;;;13.90;2.92;;;14.00;88.00;;;;;;5058976;28;20082;-73
2023/10/05 06:50:17;;;;;;;10.43;2.30;;;14.10;87.50;;;;;;5036349;28;20035;-73
2023/10/05 06:52:44;;;;;;;13.20;2.08;;;14.10;87.40;;;;;;5058802;28;20501;-73
2023/10/05 06:55:12;;;;;;;7.30;2.03;;;14.10;87.20;;;;;;5042694;28;21197;-74
2023/10/05 06:57:39;;;;;;;10.65;1.73;;;14.20;87.10;;;;;;5050363;28;20171;-74
2023/10/05 07:00:11;;;;;;;9.10;2.58;;;14.10;87.10;;;;;;5037683;28;20560;-74
2023/10/05 07:02:39;;;;;;;7.28;2.53;;;14.10;87.10;;;;;;5049553;28;20040;-75
2023/10/05 07:05:06;;;;;;;11.98;2.22;;;14.20;87.30;;;;;;5032191;28;20028;-76
2023/10/05 07:07:34;;;;;;;14.95;2.88;;;14.20;87.30;;;;;;5050268;28;20369;-74
2023/10/05 07:10:03;;;;;;;22.10;2.63;;;14.30;86.70;;;;;;5052851;28;20020;-74
2023/10/05 07:12:30;;;;;;;13.55;2.20;;;14.30;86.40;;;;;;5036031;28;20301;-74
2023/10/05 07:14:56;;;;;;;10.63;2.55;;;14.30;86.10;;;;;;5050884;28;20082;-76
2023/10/05 07:17:22;;;;;;;15.82;1.65;;;14.40;85.90;;;;;;5035211;28;20036;-73
2023/10/05 07:19:49;;;;;;;7.43;1.63;;;14.40;85.80;;;;;;5056780;28;20039;-76
2023/10/05 07:22:16;;;;;;;7.72;1.67;;;14.50;85.60;;;;;;5039312;28;20040;-75
2023/10/05 07:24:42;;;;;;;13.30;2.00;;;14.60;85.30;;;;;;5054262;28;20032;-76
2023/10/05 07:27:07;;;;;;;10.52;1.85;;;14.60;84.90;;;;;;5035553;28;20519;-74
2023/10/05 07:29:34;;;;;;;9.00;1.60;;;14.70;84.40;;;;;;5050132;28;20103;-72
2023/10/05 07:32:01;;;;;;;14.48;2.40;;;14.80;84.10;;;;;;5037781;28;20036;-74
2023/10/05 07:34:27;;;;;;;8.90;2.05;;;15.00;83.50;;;;;;5058131;28;20031;-74
2023/10/05 07:36:54;;;;;;;11.20;2.20;;;15.10;82.70;;;;;;5026722;28;20049;-73
2023/10/05 07:39:23;;;;;;;8.70;2.03;;;15.20;82.40;;;;;;5050442;28;20562;-73
2023/10/05 07:41:49;;;;;;;8.43;2.03;;;15.20;82.10;;;;;;5030806;28;20119;-72
2023/10/05 07:44:17;;;;;;;13.48;2.22;;;15.30;82.10;;;;;;5049262;28;20422;-72
2023/10/05 07:46:43;;;;;;;8.25;1.58;;;15.30;81.80;;;;;;5035013;28;20077;-72
2023/10/05 07:49:09;;;;;;;12.95;2.13;;;15.40;81.70;;;;;;5040857;28;20331;-73
2023/10/05 07:51:36;;;;;;;14.90;2.72;;;15.50;81.40;;;;;;5045611;28;20028;-73
2023/10/05 07:54:02;;;;;;;11.68;1.85;;;15.50;81.40;;;;;;5048518;28;20650;-73
2023/10/05 07:56:28;;;;;;;13.18;1.92;;;15.50;80.70;;;;;;5038462;28;20060;-74
2023/10/05 07:58:54;;;;;;;10.90;1.85;;;15.60;81.10;;;;;;5041747;28;21069;-73
2023/10/05 08:01:21;;;;;;;8.73;1.45;;;15.80;80.30;;;;;;5033949;28;20927;-73
2023/10/05 08:03:46;;;;;;;11.43;2.00;;;15.80;80.00;;;;;;5035790;28;20037;-74
2023/10/05 08:06:15;;;;;;;8.25;1.60;;;16.00;80.00;;;;;;5055712;28;20071;-75
2023/10/05 08:08:41;;;;;;;9.53;1.80;;;16.20;78.80;;;;;;5039443;28;20114;-73
2023/10/05 08:11:07;;;;;;;13.13;2.00;;;16.30;77.90;;;;;;5040382;28;20490;-74
2023/10/05 08:13:33;;;;;;;15.20;1.98;;;16.70;76.50;;;;;;5031036;28;22036;-74
2023/10/05 08:15:58;;;;;;;17.20;2.42;;;16.90;75.80;;;;;;5051662;28;20040;-74
2023/10/05 08:18:25;;;;;;;11.52;1.95;;;17.30;74.50;;;;;;5034701;28;20043;-72
2023/10/05 08:20:51;;;;;;;8.52;1.85;;;17.50;73.20;;;;;;5041146;28;20110;-73
2023/10/05 08:23:17;;;;;;;14.07;2.30;;;17.70;72.70;;;;;;5028233;28;20397;-74
2023/10/05 08:25:43;;;;;;;9.00;1.65;;;18.10;71.60;;;;;;5051539;28;20067;-73
2023/10/05 08:28:10;;;;;;;11.98;1.55;;;18.20;69.80;;;;;;5040115;28;20043;-75
2023/10/05 08:30:45;;;;;;;10.65;1.80;;;18.40;68.70;;;;;;5040212;28;20135;-72
2023/10/05 08:33:15;;;;;;;15.63;2.05;;;18.50;68.30;;;;;;5033201;28;20594;-73
2023/10/05 08:35:41;;;;;;;14.13;1.77;;;18.30;68.50;;;;;;5048720;28;20580;-75
2023/10/05 08:38:15;;;;;;;8.30;1.80;;;18.10;69.30;;;;;;5033506;28;20505;-72
2023/10/05 08:40:42;;;;;;;9.98;1.88;;;17.90;69.20;;;;;;5047826;28;20744;-73
2023/10/05 08:43:09;;;;;;;13.05;1.92;;;17.80;70.20;;;;;;5040724;28;20132;-74
2023/10/05 08:45:51;;;;;;;10.73;1.70;;;17.80;70.50;;;;;;5040426;28;20064;-71
2023/10/05 08:48:35;;;;;;;10.98;1.83;;;17.80;70.50;;;;;;5052778;28;20036;-72
2023/10/05 08:51:10;;;;;;;8.07;2.05;;;17.80;70.60;;;;;;5042436;28;20043;-71
2023/10/05 08:53:48;;;;;;;16.10;2.33;;;17.90;71.20;;;;;;5031375;28;20052;-73
2023/10/05 08:56:15;;;;;;;8.07;1.70;;;18.00;71.30;;;;;;5051361;28;20112;-71
2023/10/05 08:58:42;;;;;;;8.35;2.00;;;18.00;70.60;;;;;;5044671;28;20036;-72
2023/10/05 09:01:30;;;;;;;8.55;2.13;;;18.00;70.60;;;;;;5044069;28;20641;-71
2023/10/05 09:04:11;;;;;;;8.85;1.88;;;18.00;70.70;;;;;;5050924;28;20684;-70
2023/10/05 09:06:58;;;;;;;13.68;2.40;;;17.90;71.10;;;;;;5050009;28;20476;-72
2023/10/05 09:09:37;;;;;;;9.27;1.52;;;18.00;71.30;;;;;;5030313;28;20572;-71
2023/10/05 09:13:35;;;;;;;7.93;1.98;;;18.10;70.40;;;;;;5050965;28;20617;-71
2023/10/05 09:15:22;;;;;;;8.80;1.58;;;18.50;69.20;;;;;;5042334;28;20044;-72
2023/10/05 09:18:17;;;;;;;9.30;1.90;;;18.90;68.50;;;;;;5047847;28;20045;-72
2023/10/05 09:20:47;;;;;;;11.65;1.80;;;19.10;67.00;;;;;;5038053;28;20140;-72
2023/10/05 09:23:20;;;;;;;8.25;1.88;;;19.30;65.40;;;;;;5050993;28;20077;-73
2023/10/05 09:25:46;;;;;;;8.27;1.38;;;19.20;66.00;;;;;;5041790;28;20130;-72
2023/10/05 09:28:14;;;;;;;9.45;1.98;;;19.50;66.50;;;;;;5048628;28;20033;-74
2023/10/05 09:30:55;;;;;;;13.52;2.22;;;19.50;66.60;;;;;;5033460;28;20035;-73
2023/10/05 09:33:25;;;;;;;12.02;2.10;;;19.60;66.40;;;;;;5046061;28;20040;-74
2023/10/05 09:35:52;;;;;;;8.32;1.75;;;19.80;66.10;;;;;;5024842;28;21040;-72
2023/10/05 09:38:19;;;;;;;6.75;1.65;;;19.80;65.40;;;;;;5053081;28;20857;-71
2023/10/05 09:40:47;;;;;;;6.32;1.85;;;19.70;65.50;;;;;;5049399;28;20072;-72
2023/10/05 09:43:18;;;;;;;8.05;1.98;;;19.60;64.80;;;;;;5074030;28;20036;-73
2023/10/05 09:45:48;;;;;;;15.55;2.13;;;19.60;64.50;;;;;;5056166;28;20033;-72
2023/10/05 09:48:16;;;;;;;12.48;1.85;;;19.50;66.50;;;;;;5067545;28;20033;-72
2023/10/05 09:50:43;;;;;;;6.90;1.75;;;19.40;66.10;;;;;;5049030;28;20148;-73
2023/10/05 09:53:11;;;;;;;9.05;2.03;;;19.40;66.80;;;;;;5061091;28;20041;-73
2023/10/05 09:56:01;;;;;;;10.10;1.95;;;19.30;67.70;;;;;;5065963;28;20040;-74
2023/10/05 09:58:28;;;;;;;16.27;2.38;;;19.00;68.60;;;;;;5054244;28;21088;-73
2023/10/05 10:00:56;;;;;;;9.23;1.50;;;18.90;69.80;;;;;;5040815;28;20056;-74
2023/10/05 10:03:22;;;;;;;14.50;2.15;;;18.80;70.10;;;;;;5049660;28;20684;-73
2023/10/05 10:05:51;;;;;;;9.32;1.52;;;18.70;70.20;;;;;;5047807;28;20043;-74
2023/10/05 10:08:21;;;;;;;11.73;1.90;;;18.50;71.30;;;;;;5046975;28;20060;-75
2023/10/05 10:11:03;;;;;;;9.27;1.70;;;18.60;70.60;;;;;;5049064;28;20274;-75
2023/10/05 10:13:37;;;;;;;7.30;1.73;;;18.70;70.60;;;;;;5050013;28;20131;-73
2023/10/05 10:16:15;;;;;;;11.32;2.03;;;18.80;70.10;;;;;;5053037;28;20032;-73
2023/10/05 10:18:43;;;;;;;10.48;2.08;;;18.90;70.30;;;;;;5045978;28;20064;-75
2023/10/05 10:21:25;;;;;;;8.43;1.92;;;19.10;69.00;;;;;;5057163;28;20146;-76
2023/10/05 10:24:01;;;;;;;13.55;1.77;;;19.20;69.40;;;;;;5043639;28;20032;-76
2023/10/05 10:26:27;;;;;;;8.15;1.42;;;19.50;68.30;;;;;;5059095;28;20052;-75
2023/10/05 10:31:25;;;;;;;12.10;2.05;;;19.70;68.00;;;;;;5055885;28;20391;-75
2023/10/05 10:33:52;;;;;;;11.48;2.33;;;20.10;66.50;;;;;;5052234;28;20040;-75
2023/10/05 10:36:22;;;;;;;13.45;2.25;;;20.50;65.30;;;;;;5054370;28;20116;-73
2023/10/05 10:38:50;;;;;;;16.15;2.33;;;20.90;63.50;;;;;;5050766;28;20060;-72
2023/10/05 10:41:17;;;;;;;6.70;1.60;;;21.20;63.70;;;;;;5058401;28;20032;-74
2023/10/05 10:44:00;;;;;;;9.30;1.52;;;21.20;62.90;;;;;;5043985;28;20032;-77
2023/10/05 10:46:30;;;;;;;9.38;1.83;;;20.80;63.10;;;;;;5059914;28;20036;-74
2023/10/05 10:48:57;;;;;;;8.52;2.13;;;20.50;64.00;;;;;;5044346;28;20028;-75
2023/10/05 10:51:27;;;;;;;8.13;1.52;;;20.10;65.50;;;;;;5051456;28;20028;-74
2023/10/05 10:53:55;;;;;;;9.02;1.63;;;19.90;66.00;;;;;;5042534;28;20029;-76
2023/10/05 10:56:27;;;;;;;6.50;1.58;;;19.80;64.30;;;;;;5046808;28;20058;-74
2023/10/05 10:58:57;;;;;;;10.15;1.95;;;19.70;64.50;;;;;;5037827;28;20043;-75
2023/10/05 11:01:40;;;;;;;5.82;1.92;;;20.00;62.20;;;;;;5056478;28;20041;-74
2023/10/05 11:04:23;;;;;;;9.30;1.50;;;20.40;60.90;;;;;;5044378;28;20041;-74
2023/10/05 11:06:50;;;;;;;7.28;1.52;;;20.60;60.50;;;;;;5063799;28;20039;-74
2023/10/05 11:09:18;;;;;;;10.18;1.83;;;21.00;58.80;;;;;;5051421;28;20032;-74
2023/10/05 11:11:44;;;;;;;5.57;1.47;;;21.00;58.80;;;;;;5054913;28;20431;-74
2023/10/05 11:14:21;;;;;;;9.82;2.35;;;21.20;58.50;;;;;;5046116;28;20028;-75
2023/10/05 11:16:59;;;;;;;6.78;1.52;;;21.30;58.90;;;;;;5052190;28;20024;-76
2023/10/05 11:19:36;;;;;;;9.43;1.63;;;21.10;59.10;;;;;;5041304;28;20433;-75
2023/10/05 11:22:04;;;;;;;11.05;1.70;;;21.20;59.60;;;;;;5056220;28;20052;-74
2023/10/05 11:24:30;;;;;;;10.38;1.85;;;21.10;60.30;;;;;;5037320;28;20078;-75
2023/10/05 11:29:28;;;;;;;5.78;1.35;;;21.00;60.50;;;;;;5040830;28;20032;-74
2023/10/05 11:32:01;;;;;;;7.85;2.08;;;20.90;59.80;;;;;;5048249;28;20032;-77
2023/10/05 11:34:29;;;;;;;10.85;1.92;;;20.80;60.30;;;;;;5043738;28;20104;-74
2023/10/05 11:36:58;;;;;;;7.68;1.60;;;20.50;58.30;;;;;;5047541;28;20036;-75
2023/10/05 11:39:28;;;;;;;8.45;2.15;;;20.30;59.00;;;;;;5037383;28;20032;-75
2023/10/05 11:41:57;;;;;;;7.88;1.98;;;20.40;58.60;;;;;;5060904;28;20396;-74
2023/10/05 11:44:24;;;;;;;;;;;20.50;57.70;;;;;;5042310;28;20032;-77
2023/10/05 11:46:54;;;;;;;9.32;1.88;;;20.60;57.20;;;;;;5059426;28;19953;-75
2023/10/05 11:49:30;;;;;;;9.13;1.75;;;20.50;55.50;;;;;;5057187;28;20043;-75
2023/10/05 11:51:56;;;;;;;10.23;1.75;;;20.60;57.00;;;;;;5054635;28;20036;-75
2023/10/05 11:54:24;;;;;;;7.18;1.55;;;20.80;56.20;;;;;;5052831;28;20089;-74
2023/10/05 11:56:53;;;;;;;13.45;2.22;;;20.70;54.40;;;;;;5042388;28;20446;-74
2023/10/05 11:59:27;;;;;;;3.63;1.13;;;20.70;56.70;;;;;;5055418;28;20152;-76
2023/10/05 12:01:53;;;;;;;9.00;1.77;;;20.90;56.50;;;;;;5044843;28;20159;-76
2023/10/05 12:04:20;;;;;;;8.13;1.67;;;21.10;56.00;;;;;;5056635;28;20036;-76
2023/10/05 12:06:47;;;;;;;8.82;1.55;;;21.10;56.50;;;;;;5040448;28;20032;-78
2023/10/05 12:09:32;;;;;;;8.05;1.92;;;21.40;55.90;;;;;;5054987;28;20028;-75
2023/10/05 12:11:59;;;;;;;4.53;1.33;;;21.60;56.20;;;;;;5035868;28;20507;-74
2023/10/05 12:14:25;;;;;;;7.07;1.45;;;21.80;56.10;;;;;;5060797;28;20035;-75
2023/10/05 12:16:56;;;;;;;7.32;1.60;;;21.70;55.90;;;;;;5041655;28;20032;-74
2023/10/05 12:19:27;;;;;;;9.25;1.83;;;21.70;56.00;;;;;;5058331;28;20040;-75
2023/10/05 12:21:55;;;;;;;9.07;1.80;;;21.90;56.40;;;;;;5044608;28;20488;-75
2023/10/05 12:24:21;;;;;;;10.18;1.70;;;22.00;56.30;;;;;;5057974;28;20047;-74
2023/10/05 12:26:47;;;;;;;11.93;2.00;;;22.30;55.50;;;;;;5049922;28;20058;-76
2023/10/05 12:29:13;;;;;;;5.97;2.28;;;22.30;55.30;;;;;;5061764;28;20029;-76
2023/10/05 12:31:40;;;;;;;7.10;1.92;;;22.20;56.30;;;;;;5042498;28;20754;-75
2023/10/05 12:34:14;;;;;;;8.15;1.55;;;22.20;56.60;;;;;;5059644;28;20032;-77
2023/10/05 12:36:41;;;;;;;9.52;1.45;;;22.70;55.80;;;;;;5040762;28;20028;-75
2023/10/05 12:39:11;;;;;;;16.13;2.00;;;22.90;55.80;;;;;;5056168;28;20032;-76
2023/10/05 12:41:40;;;;;;;11.25;2.08;;;22.90;56.20;;;;;;5042751;28;20067;-74
2023/10/05 12:44:09;;;;;;;12.48;1.95;;;22.80;54.50;;;;;;5055943;28;20041;-76
2023/10/05 12:46:39;;;;;;;;;;;23.20;55.00;;;;;;5050012;28;20028;-74
2023/10/05 12:49:07;;;;;;;9.23;1.92;;;23.20;54.10;;;;;;5063115;28;20204;-75
2023/10/05 12:51:34;;;;;;;7.63;1.55;;;22.80;53.80;;;;;;5036108;28;20036;-73
2023/10/05 12:54:01;;;;;;;6.47;1.80;;;22.60;54.70;;;;;;5062254;28;20031;-74
2023/10/05 12:56:26;;;;;;;10.88;1.58;;;22.20;56.20;;;;;;5055854;28;20107;-74
2023/10/05 12:58:52;;;;;;;8.88;1.50;;;21.60;58.20;;;;;;5039976;28;20081;-73
2023/10/05 13:01:17;;;;;;;5.88;1.55;;;21.10;60.00;;;;;;5052896;28;20037;-73